createdAt,value
2016-10-13T00:00:51.171Z,21.29
2016-10-13T00:01:51.211Z,21.32
2016-10-13T00:02:51.813Z,21.33
2016-10-13T00:03:51.323Z,21.32
2016-10-13T00:04:51.958Z,21.32
2016-10-13T00:05:51.992Z,21.35
2016-10-13T00:06:52.032Z,21.36
2016-10-13T00:07:51.538Z,21.37
2016-10-13T00:08:51.746Z,21.43
2016-10-13T00:09:51.632Z,21.17
2016-10-13T00:10:51.674Z,21.2
2016-10-13T00:11:51.759Z,21.14
2016-10-13T00:12:51.806Z,21.29
2016-10-13T00:13:52.001Z,21.24
2016-10-13T00:14:51.897Z,21.29
2016-10-13T00:15:51.972Z,21.29
2016-10-13T00:16:52.029Z,21.32
2016-10-13T00:17:52.096Z,21.29
2016-10-13T00:18:52.221Z,21.36
2016-10-13T00:19:52.180Z,21.43
2016-10-13T00:20:52.241Z,21.42
2016-10-13T00:21:52.276Z,21.39
2016-10-13T00:22:52.327Z,21.42
2016-10-13T00:23:52.496Z,21.32
2016-10-13T00:24:52.433Z,21.51
2016-10-13T00:25:53.056Z,21.43
2016-10-13T00:26:52.541Z,21.51
2016-10-13T00:27:52.612Z,21.57
2016-10-13T00:28:52.765Z,21.45
2016-10-13T00:29:52.707Z,21.45
2016-10-13T00:30:53.253Z,21.37
2016-10-13T00:31:52.831Z,21.48
2016-10-13T00:32:52.867Z,21.43
2016-10-13T00:33:53.451Z,21.58
2016-10-13T00:34:52.975Z,21.52
2016-10-13T00:35:53.047Z,21.5
2016-10-13T00:36:53.079Z,21.48
2016-10-13T00:37:53.180Z,21.52
2016-10-13T00:38:53.227Z,21.54
2016-10-13T00:39:53.246Z,21.55
2016-10-13T00:40:53.261Z,21.51
2016-10-13T00:41:53.317Z,21.51
2016-10-13T00:42:53.413Z,21.48
2016-10-13T00:43:53.446Z,21.45
2016-10-13T00:44:53.608Z,21.54
2016-10-13T00:45:53.572Z,21.52
2016-10-13T00:46:53.626Z,21.52
2016-10-13T00:47:53.705Z,21.52
2016-10-13T00:48:53.736Z,21.54
2016-10-13T00:49:53.891Z,21.48
2016-10-13T00:50:53.821Z,21.36
2016-10-13T00:51:53.873Z,21.37
2016-10-13T00:52:54.471Z,21.42
2016-10-13T00:53:54.029Z,21.45
2016-10-13T00:54:54.119Z,21.51
2016-10-13T00:55:54.692Z,21.46
2016-10-13T00:56:54.153Z,21.5
2016-10-13T00:57:54.195Z,21.35
2016-10-13T00:58:54.255Z,21.51
2016-10-13T00:59:54.303Z,21.51
2016-10-13T01:00:54.384Z,21.43
2016-10-13T01:01:54.437Z,21.51
2016-10-13T01:02:54.473Z,21.51
2016-10-13T01:03:54.507Z,21.46
2016-10-13T01:04:54.553Z,21.45
2016-10-13T01:05:54.627Z,21.54
2016-10-13T01:06:54.656Z,21.55
2016-10-13T01:07:54.725Z,21.57
2016-10-13T01:08:54.756Z,21.4
2016-10-13T01:09:54.852Z,21.51
2016-10-13T01:10:55.004Z,21.51
2016-10-13T01:11:54.969Z,21.52
2016-10-13T01:12:54.971Z,21.46
2016-10-13T01:13:55.058Z,21.48
2016-10-13T01:14:55.084Z,21.5
2016-10-13T01:15:55.277Z,21.5
2016-10-13T01:16:55.198Z,21.51
2016-10-13T01:17:55.257Z,21.33
2016-10-13T01:18:55.286Z,21.37
2016-10-13T01:19:55.401Z,21.45
2016-10-13T01:20:55.504Z,21.37
2016-10-13T01:21:55.468Z,21.32
2016-10-13T01:22:55.543Z,21.45
2016-10-13T01:23:55.604Z,21.45
2016-10-13T01:24:55.679Z,21.45
2016-10-13T01:25:55.818Z,21.4
2016-10-13T01:26:55.778Z,21.3
2016-10-13T01:27:56.356Z,21.33
2016-10-13T01:28:55.813Z,21.4
2016-10-13T01:29:55.901Z,21.45
2016-10-13T01:30:56.007Z,21.42
2016-10-13T01:31:56.015Z,21.39
2016-10-13T01:32:56.059Z,21.43
2016-10-13T01:33:56.097Z,21.45
2016-10-13T01:34:56.178Z,21.33
2016-10-13T01:35:56.215Z,21.39
2016-10-13T01:36:56.274Z,21.37
2016-10-13T01:37:56.309Z,21.45
2016-10-13T01:38:56.375Z,21.36
2016-10-13T01:39:56.451Z,21.4
2016-10-13T01:40:56.486Z,21.39
2016-10-13T01:41:56.639Z,21.36
2016-10-13T01:42:56.582Z,21.37
2016-10-13T01:43:56.619Z,21.36
2016-10-13T01:44:56.670Z,21.4
2016-10-13T01:45:56.725Z,21.36
2016-10-13T01:46:56.871Z,21.45
2016-10-13T01:47:56.844Z,21.45
2016-10-13T01:48:56.902Z,21.46
2016-10-13T01:49:56.991Z,21.43
2016-10-13T01:50:57.024Z,21.51
2016-10-13T01:51:57.185Z,21.5
2016-10-13T01:52:57.125Z,21.46
2016-10-13T01:53:57.162Z,21.48
2016-10-13T01:54:57.218Z,21.46
2016-10-13T01:55:57.304Z,21.48
2016-10-13T01:56:57.341Z,21.48
2016-10-13T01:57:57.440Z,21.46
2016-10-13T01:58:57.989Z,21.46
2016-10-13T01:59:57.483Z,21.5
2016-10-13T02:00:57.545Z,21.33
2016-10-13T02:01:57.610Z,21.29
2016-10-13T02:02:57.646Z,21.33
2016-10-13T02:03:57.716Z,21.4
2016-10-13T02:04:57.793Z,21.36
2016-10-13T02:05:57.822Z,21.36
2016-10-13T02:06:57.840Z,21.36
2016-10-13T02:07:57.928Z,21.37
2016-10-13T02:08:57.949Z,21.36
2016-10-13T02:09:58.046Z,21.43
2016-10-13T02:10:58.065Z,21.4
2016-10-13T02:11:58.702Z,21.4
2016-10-13T02:12:58.317Z,21.33
2016-10-13T02:13:58.227Z,21.36
2016-10-13T02:14:58.284Z,21.3
2016-10-13T02:15:58.376Z,21.27
2016-10-13T02:16:58.395Z,21.3
2016-10-13T02:17:58.577Z,21.3
2016-10-13T02:18:58.503Z,21.32
2016-10-13T02:19:58.599Z,21.27
2016-10-13T02:20:58.637Z,21.3
2016-10-13T02:21:58.681Z,21.32
2016-10-13T02:22:58.804Z,21.29
2016-10-13T02:23:58.788Z,21.29
2016-10-13T02:24:58.821Z,21.27
2016-10-13T02:25:58.841Z,21.14
2016-10-13T02:26:58.906Z,21.3
2016-10-13T02:27:59.102Z,21.24
2016-10-13T02:28:59.028Z,21.12
2016-10-13T02:29:59.082Z,21.24
2016-10-13T02:30:59.142Z,21.21
2016-10-13T02:31:59.211Z,21.24
2016-10-13T02:32:59.268Z,21.36
2016-10-13T02:33:59.292Z,21.27
2016-10-13T02:34:59.344Z,21.27
2016-10-13T02:35:59.402Z,21.32
2016-10-13T02:36:59.479Z,21.32
2016-10-13T02:37:59.497Z,21.22
2016-10-13T02:38:59.536Z,21.24
2016-10-13T02:39:59.625Z,21.22
2016-10-13T02:40:59.689Z,21.21
2016-10-13T02:41:59.752Z,21.24
2016-10-13T02:43:00.332Z,21.24
2016-10-13T02:43:59.829Z,21.32
2016-10-13T02:44:59.876Z,21.27
2016-10-13T02:45:59.933Z,21.3
2016-10-13T02:47:00.003Z,21.24
2016-10-13T02:48:00.024Z,21.32
2016-10-13T02:49:00.080Z,21.29
2016-10-13T02:50:00.148Z,21.2
2016-10-13T02:51:00.197Z,21.29
2016-10-13T02:52:00.266Z,21.25
2016-10-13T02:53:00.293Z,21.21
2016-10-13T02:54:00.463Z,21.3
2016-10-13T02:55:00.390Z,21.22
2016-10-13T02:56:00.445Z,21.22
2016-10-13T02:57:00.517Z,21.18
2016-10-13T02:58:01.095Z,21.21
2016-10-13T02:59:00.723Z,21.33
2016-10-13T03:00:00.664Z,21.32
2016-10-13T03:01:01.255Z,21.3
2016-10-13T03:02:00.766Z,21.24
2016-10-13T03:03:00.859Z,21.36
2016-10-13T03:04:00.971Z,21.24
2016-10-13T03:05:00.930Z,21.27
2016-10-13T03:06:01.036Z,21.25
2016-10-13T03:07:01.035Z,21.24
2016-10-13T03:08:01.085Z,21.3
2016-10-13T03:09:01.242Z,21.29
2016-10-13T03:10:01.245Z,21.2
2016-10-13T03:11:01.278Z,21.24
2016-10-13T03:12:01.290Z,21.24
2016-10-13T03:13:01.348Z,21.22
2016-10-13T03:14:01.411Z,21.22
2016-10-13T03:15:01.495Z,21.17
2016-10-13T03:16:01.514Z,21.09
2016-10-13T03:17:01.571Z,21.14
2016-10-13T03:18:01.598Z,21.11
2016-10-13T03:19:01.697Z,21.18
2016-10-13T03:20:01.717Z,21.07
2016-10-13T03:21:01.768Z,21.07
2016-10-13T03:22:01.840Z,21.03
2016-10-13T03:23:01.891Z,21.15
2016-10-13T03:24:01.951Z,21.07
2016-10-13T03:25:02.001Z,21.09
2016-10-13T03:26:02.066Z,21.07
2016-10-13T03:27:02.082Z,21.07
2016-10-13T03:28:02.187Z,20.95
2016-10-13T03:29:02.219Z,20.93
2016-10-13T03:30:02.340Z,21.02
2016-10-13T03:31:02.345Z,20.97
2016-10-13T03:32:02.363Z,21.02
2016-10-13T03:33:02.461Z,20.93
2016-10-13T03:34:02.477Z,21.07
2016-10-13T03:35:02.622Z,20.97
2016-10-13T03:36:02.589Z,20.95
2016-10-13T03:37:02.595Z,21.07
2016-10-13T03:38:02.706Z,21.05
2016-10-13T03:39:02.709Z,21.05
2016-10-13T03:40:03.404Z,20.93
2016-10-13T03:41:02.867Z,20.92
2016-10-13T03:42:02.885Z,20.95
2016-10-13T03:43:03.505Z,20.96
2016-10-13T03:44:03.541Z,20.97
2016-10-13T03:45:03.055Z,21.03
2016-10-13T03:46:03.131Z,21.02
2016-10-13T03:47:03.140Z,20.95
2016-10-13T03:48:03.216Z,20.95
2016-10-13T03:49:03.266Z,20.96
2016-10-13T03:50:03.358Z,20.92
2016-10-13T03:51:03.383Z,20.96
2016-10-13T03:52:03.416Z,20.96
2016-10-13T03:53:03.471Z,20.96
2016-10-13T03:54:03.542Z,20.93
2016-10-13T03:55:03.580Z,20.96
2016-10-13T03:56:03.738Z,20.96
2016-10-13T03:57:03.696Z,20.96
2016-10-13T03:58:03.749Z,21.02
2016-10-13T03:59:03.813Z,20.92
2016-10-13T04:00:03.822Z,20.9
2016-10-13T04:01:04.521Z,20.95
2016-10-13T04:02:03.916Z,20.95
2016-10-13T04:03:04.029Z,21
2016-10-13T04:04:04.077Z,20.95
2016-10-13T04:05:04.149Z,20.88
2016-10-13T04:06:04.247Z,20.84
2016-10-13T04:07:04.194Z,20.84
2016-10-13T04:08:04.247Z,20.85
2016-10-13T04:09:04.310Z,20.72
2016-10-13T04:10:04.347Z,20.74
2016-10-13T04:11:04.414Z,20.77
2016-10-13T04:12:04.500Z,20.81
2016-10-13T04:13:05.041Z,20.81
2016-10-13T04:14:04.589Z,20.81
2016-10-13T04:15:04.656Z,20.81
2016-10-13T04:16:04.739Z,20.87
2016-10-13T04:17:04.752Z,20.8
2016-10-13T04:18:04.799Z,20.9
2016-10-13T04:19:04.820Z,20.92
2016-10-13T04:20:04.927Z,20.95
2016-10-13T04:21:04.979Z,20.92
2016-10-13T04:22:05.089Z,20.96
2016-10-13T04:23:05.060Z,20.84
2016-10-13T04:24:05.132Z,20.85
2016-10-13T04:25:05.155Z,20.81
2016-10-13T04:26:05.253Z,20.88
2016-10-13T04:27:05.349Z,20.88
2016-10-13T04:28:05.302Z,20.92
2016-10-13T04:29:05.373Z,20.82
2016-10-13T04:30:05.960Z,20.81
2016-10-13T04:31:05.503Z,20.92
2016-10-13T04:32:05.648Z,20.93
2016-10-13T04:33:06.096Z,20.82
2016-10-13T04:34:05.665Z,20.8
2016-10-13T04:35:05.688Z,20.93
2016-10-13T04:36:06.252Z,20.9
2016-10-13T04:37:05.914Z,20.81
2016-10-13T04:38:05.861Z,20.84
2016-10-13T04:39:05.893Z,20.85
2016-10-13T04:40:05.960Z,20.82
2016-10-13T04:41:06.563Z,20.84
2016-10-13T04:42:06.057Z,20.84
2016-10-13T04:43:06.151Z,20.85
2016-10-13T04:44:06.154Z,20.81
2016-10-13T04:45:06.781Z,20.69
2016-10-13T04:46:06.251Z,20.7
2016-10-13T04:47:06.363Z,20.72
2016-10-13T04:48:06.352Z,20.72
2016-10-13T04:49:06.452Z,20.75
2016-10-13T04:50:06.993Z,20.74
2016-10-13T04:51:06.522Z,20.66
2016-10-13T04:52:06.567Z,20.77
2016-10-13T04:53:06.627Z,20.78
2016-10-13T04:54:07.228Z,20.75
2016-10-13T04:55:06.756Z,20.77
2016-10-13T04:56:06.832Z,20.81
2016-10-13T04:57:06.889Z,20.8
2016-10-13T04:58:07.015Z,20.77
2016-10-13T04:59:06.944Z,20.8
2016-10-13T05:00:07.000Z,20.74
2016-10-13T05:01:07.613Z,20.75
2016-10-13T05:02:07.164Z,20.78
2016-10-13T05:03:07.276Z,20.8
2016-10-13T05:04:07.199Z,20.84
2016-10-13T05:05:07.274Z,20.8
2016-10-13T05:06:07.344Z,20.78
2016-10-13T05:07:07.419Z,20.67
2016-10-13T05:08:07.538Z,20.77
2016-10-13T05:09:07.502Z,20.69
2016-10-13T05:10:07.547Z,20.78
2016-10-13T05:11:07.592Z,20.77
2016-10-13T05:12:07.637Z,20.74
2016-10-13T05:13:07.690Z,20.74
2016-10-13T05:14:07.763Z,20.75
2016-10-13T05:15:07.831Z,20.78
2016-10-13T05:16:07.837Z,20.7
2016-10-13T05:17:07.901Z,20.75
2016-10-13T05:18:08.003Z,20.65
2016-10-13T05:19:08.026Z,20.67
2016-10-13T05:20:08.060Z,20.6
2016-10-13T05:21:08.658Z,20.62
2016-10-13T05:22:08.151Z,20.63
2016-10-13T05:23:08.255Z,20.6
2016-10-13T05:24:08.261Z,20.58
2016-10-13T05:25:08.348Z,20.52
2016-10-13T05:26:08.393Z,20.59
2016-10-13T05:27:08.449Z,20.5
2016-10-13T05:28:08.486Z,20.55
2016-10-13T05:29:08.617Z,20.56
2016-10-13T05:30:08.583Z,20.59
2016-10-13T05:31:08.639Z,20.58
2016-10-13T05:32:08.747Z,20.58
2016-10-13T05:33:08.739Z,20.63
2016-10-13T05:34:08.925Z,20.58
2016-10-13T05:35:08.864Z,20.67
2016-10-13T05:36:08.937Z,20.63
2016-10-13T05:37:08.968Z,20.66
2016-10-13T05:38:09.036Z,20.65
2016-10-13T05:39:09.168Z,20.6
2016-10-13T05:40:09.114Z,20.63
2016-10-13T05:41:09.746Z,20.65
2016-10-13T05:42:09.242Z,20.63
2016-10-13T05:43:09.288Z,20.62
2016-10-13T05:44:09.423Z,20.67
2016-10-13T05:45:09.387Z,20.65
2016-10-13T05:46:09.451Z,20.69
2016-10-13T05:47:09.470Z,20.65
2016-10-13T05:48:09.565Z,20.6
2016-10-13T05:49:09.613Z,20.65
2016-10-13T05:50:10.728Z,20.63
2016-10-13T05:51:09.736Z,20.63
2016-10-13T05:52:09.771Z,20.63
2016-10-13T05:53:09.810Z,20.65
2016-10-13T05:54:09.868Z,20.63
2016-10-13T05:55:09.946Z,20.63
2016-10-13T05:56:09.998Z,20.59
2016-10-13T05:57:10.026Z,20.62
2016-10-13T05:58:10.071Z,20.65
2016-10-13T05:59:10.134Z,20.58
2016-10-13T06:00:10.277Z,20.69
2016-10-13T06:01:10.243Z,20.52
2016-10-13T06:02:10.251Z,20.62
2016-10-13T06:03:10.331Z,20.52
2016-10-13T06:04:10.391Z,20.55
2016-10-13T06:05:10.532Z,20.51
2016-10-13T06:06:10.489Z,20.52
2016-10-13T06:07:10.533Z,20.47
2016-10-13T06:08:10.608Z,20.51
2016-10-13T06:09:10.641Z,20.44
2016-10-13T06:10:10.790Z,20.43
2016-10-13T06:11:10.794Z,20.47
2016-10-13T06:12:10.862Z,20.44
2016-10-13T06:13:10.859Z,20.37
2016-10-13T06:14:10.926Z,20.34
2016-10-13T06:15:11.606Z,20.43
2016-10-13T06:16:11.025Z,20.44
2016-10-13T06:17:11.112Z,20.48
2016-10-13T06:18:11.132Z,20.47
2016-10-13T06:19:11.192Z,20.48
2016-10-13T06:20:11.246Z,20.52
2016-10-13T06:21:11.274Z,20.52
2016-10-13T06:22:11.330Z,20.66
2016-10-13T06:23:11.377Z,20.58
2016-10-13T06:24:11.457Z,20.51
2016-10-13T06:25:11.482Z,20.55
2016-10-13T06:26:11.540Z,20.62
2016-10-13T06:27:11.611Z,20.66
2016-10-13T06:28:11.685Z,20.62
2016-10-13T06:29:11.697Z,20.66
2016-10-13T06:30:11.737Z,20.59
2016-10-13T06:31:11.817Z,20.59
2016-10-13T06:32:11.935Z,20.69
2016-10-13T06:33:11.944Z,20.66
2016-10-13T06:34:11.958Z,20.62
2016-10-13T06:35:12.041Z,20.52
2016-10-13T06:36:12.170Z,20.52
2016-10-13T06:37:12.140Z,20.56
2016-10-13T06:38:12.200Z,20.56
2016-10-13T06:39:12.267Z,20.55
2016-10-13T06:40:12.269Z,20.52
2016-10-13T06:41:12.453Z,20.58
2016-10-13T06:42:12.360Z,20.55
2016-10-13T06:43:12.445Z,20.43
2016-10-13T06:44:12.988Z,20.41
2016-10-13T06:45:12.538Z,20.32
2016-10-13T06:46:12.716Z,20.31
2016-10-13T06:47:12.633Z,20.31
2016-10-13T06:48:12.692Z,20.36
2016-10-13T06:49:12.761Z,20.36
2016-10-13T06:50:12.819Z,20.36
2016-10-13T06:51:12.855Z,20.22
2016-10-13T06:52:12.882Z,20.25
2016-10-13T06:53:12.996Z,20.29
2016-10-13T06:54:13.041Z,20.21
2016-10-13T06:55:13.071Z,20.31
2016-10-13T06:56:13.130Z,20.37
2016-10-13T06:57:13.201Z,20.37
2016-10-13T06:58:13.244Z,20.34
2016-10-13T06:59:13.340Z,20.32
2016-10-13T07:00:13.305Z,20.39
2016-10-13T07:01:13.362Z,20.34
2016-10-13T07:02:14.036Z,20.29
2016-10-13T07:03:13.503Z,20.44
2016-10-13T07:04:13.576Z,20.44
2016-10-13T07:05:13.635Z,20.44
2016-10-13T07:06:13.665Z,20.4
2016-10-13T07:07:13.785Z,20.32
2016-10-13T07:08:13.762Z,20.47
2016-10-13T07:09:13.802Z,20.4
2016-10-13T07:10:13.868Z,20.5
2016-10-13T07:11:13.930Z,20.41
2016-10-13T07:12:14.051Z,20.4
2016-10-13T07:13:14.045Z,20.41
2016-10-13T07:14:14.079Z,20.36
2016-10-13T07:15:14.162Z,20.39
2016-10-13T07:16:14.166Z,20.31
2016-10-13T07:17:14.341Z,20.34
2016-10-13T07:18:14.310Z,20.44
2016-10-13T07:19:14.359Z,20.34
2016-10-13T07:20:14.378Z,20.43
2016-10-13T07:21:14.463Z,20.43
2016-10-13T07:22:14.469Z,20.32
2016-10-13T07:23:14.586Z,20.43
2016-10-13T07:24:14.598Z,20.32
2016-10-13T07:25:14.648Z,20.51
2016-10-13T07:26:14.716Z,20.44
2016-10-13T07:27:14.793Z,20.44
2016-10-13T07:28:14.841Z,20.36
2016-10-13T07:29:14.865Z,20.47
2016-10-13T07:30:14.948Z,20.47
2016-10-13T07:31:14.946Z,20.39
2016-10-13T07:32:15.044Z,20.34
2016-10-13T07:33:15.205Z,20.34
2016-10-13T07:34:15.122Z,20.31
2016-10-13T07:35:15.189Z,20.32
2016-10-13T07:36:15.251Z,20.39
2016-10-13T07:37:15.307Z,20.37
2016-10-13T07:38:15.409Z,20.31
2016-10-13T07:39:15.895Z,20.41
2016-10-13T07:40:15.446Z,20.31
2016-10-13T07:41:16.055Z,20.4
2016-10-13T07:42:15.562Z,20.36
2016-10-13T07:43:15.707Z,20.28
2016-10-13T07:44:15.673Z,20.4
2016-10-13T07:45:15.700Z,20.36
2016-10-13T07:46:15.736Z,20.29
2016-10-13T07:47:15.784Z,20.32
2016-10-13T07:48:15.880Z,20.32
2016-10-13T07:49:15.942Z,20.34
2016-10-13T07:50:15.978Z,20.36
2016-10-13T07:51:16.013Z,20.39
2016-10-13T07:52:16.056Z,20.29
2016-10-13T07:53:16.105Z,20.41
2016-10-13T07:54:16.207Z,20.36
2016-10-13T07:55:16.268Z,20.44
2016-10-13T07:56:16.271Z,20.37
2016-10-13T07:57:16.358Z,20.41
2016-10-13T07:58:16.389Z,20.4
2016-10-13T07:59:16.551Z,20.5
2016-10-13T08:00:16.488Z,20.39
2016-10-13T08:01:16.563Z,20.34
2016-10-13T08:02:16.601Z,20.32
2016-10-13T08:03:16.637Z,20.39
2016-10-13T08:04:16.811Z,20.39
2016-10-13T08:05:16.767Z,20.36
2016-10-13T08:06:16.815Z,20.31
2016-10-13T08:07:16.858Z,20.37
2016-10-13T08:08:16.917Z,20.4
2016-10-13T08:09:17.628Z,20.4
2016-10-13T08:10:17.018Z,20.47
2016-10-13T08:11:17.079Z,20.51
2016-10-13T08:12:17.093Z,20.44
2016-10-13T08:13:17.159Z,20.43
2016-10-13T08:14:17.207Z,20.5
2016-10-13T08:15:17.273Z,20.52
2016-10-13T08:16:17.360Z,20.47
2016-10-13T08:17:17.386Z,20.43
2016-10-13T08:18:17.464Z,20.52
2016-10-13T08:19:17.478Z,20.48
2016-10-13T08:20:17.532Z,20.56
2016-10-13T08:21:17.559Z,20.59
2016-10-13T08:22:17.617Z,20.43
2016-10-13T08:23:17.688Z,20.4
2016-10-13T08:24:17.778Z,20.47
2016-10-13T08:25:17.807Z,20.52
2016-10-13T08:26:17.864Z,20.44
2016-10-13T08:27:17.914Z,20.48
2016-10-13T08:28:17.943Z,20.41
2016-10-13T08:29:18.007Z,20.59
2016-10-13T08:30:18.183Z,20.47
2016-10-13T08:31:18.112Z,20.55
2016-10-13T08:32:18.170Z,20.52
2016-10-13T08:33:18.227Z,20.55
2016-10-13T08:34:18.264Z,20.44
2016-10-13T08:35:18.463Z,20.47
2016-10-13T08:36:18.369Z,20.43
2016-10-13T08:37:18.402Z,20.47
2016-10-13T08:38:18.516Z,20.52
2016-10-13T08:39:18.552Z,20.48
2016-10-13T08:40:18.697Z,20.41
2016-10-13T08:41:18.662Z,20.4
2016-10-13T08:42:18.656Z,20.44
2016-10-13T08:43:18.776Z,20.41
2016-10-13T08:44:18.784Z,20.44
2016-10-13T08:45:18.923Z,20.39
2016-10-13T08:46:18.934Z,20.51
2016-10-13T08:47:18.928Z,20.4
2016-10-13T08:48:19.002Z,20.48
2016-10-13T08:49:19.070Z,20.51
2016-10-13T08:50:19.114Z,20.48
2016-10-13T08:51:19.204Z,20.37
2016-10-13T08:52:19.240Z,20.43
2016-10-13T08:53:19.287Z,20.41
2016-10-13T08:54:19.345Z,20.29
2016-10-13T08:55:19.381Z,20.39
2016-10-13T08:56:19.428Z,20.31
2016-10-13T08:57:20.525Z,20.34
2016-10-13T08:58:19.545Z,20.43
2016-10-13T08:59:19.599Z,20.47
2016-10-13T09:00:19.645Z,20.39
2016-10-13T09:01:19.793Z,20.48
2016-10-13T09:02:19.761Z,20.44
2016-10-13T09:03:19.816Z,20.4
2016-10-13T09:04:19.856Z,20.34
2016-10-13T09:05:19.919Z,20.47
2016-10-13T09:06:20.066Z,20.48
2016-10-13T09:07:20.020Z,20.39
2016-10-13T09:08:20.058Z,20.48
2016-10-13T09:09:20.136Z,20.48
2016-10-13T09:10:20.149Z,20.5
2016-10-13T09:11:20.335Z,20.44
2016-10-13T09:12:20.806Z,20.56
2016-10-13T09:13:20.368Z,20.56
2016-10-13T09:14:20.361Z,20.5
2016-10-13T09:15:20.429Z,20.48
2016-10-13T09:16:20.601Z,20.56
2016-10-13T09:17:20.545Z,20.44
2016-10-13T09:18:20.604Z,20.51
2016-10-13T09:19:20.623Z,20.5
2016-10-13T09:20:20.687Z,20.48
2016-10-13T09:21:20.848Z,20.41
2016-10-13T09:22:20.777Z,20.43
2016-10-13T09:23:20.859Z,20.47
2016-10-13T09:24:20.919Z,20.44
2016-10-13T09:25:20.994Z,20.41
2016-10-13T09:26:21.611Z,20.44
2016-10-13T09:27:21.058Z,20.4
2016-10-13T09:28:21.114Z,20.43
2016-10-13T09:29:21.174Z,20.4
2016-10-13T09:30:21.201Z,20.32
2016-10-13T09:31:21.260Z,20.36
2016-10-13T09:32:21.858Z,20.43
2016-10-13T09:33:21.371Z,20.36
2016-10-13T09:34:21.435Z,20.24
2016-10-13T09:35:22.010Z,20.21
2016-10-13T09:36:21.534Z,20.18
2016-10-13T09:37:21.551Z,20.22
2016-10-13T09:38:21.640Z,20.19
2016-10-13T09:39:21.679Z,20.21
2016-10-13T09:40:21.792Z,20.32
2016-10-13T09:41:21.815Z,20.32
2016-10-13T09:42:21.868Z,20.29
2016-10-13T09:43:21.945Z,20.37
2016-10-13T09:44:21.992Z,20.31
2016-10-13T09:45:22.032Z,20.39
2016-10-13T09:46:22.076Z,20.36
2016-10-13T09:47:22.128Z,20.29
2016-10-13T09:48:22.184Z,20.34
2016-10-13T09:49:22.253Z,20.47
2016-10-13T09:50:22.814Z,20.41
2016-10-13T09:51:22.881Z,20.37
2016-10-13T09:52:22.376Z,20.5
2016-10-13T09:53:22.453Z,20.44
2016-10-13T09:54:22.486Z,20.52
2016-10-13T09:55:22.523Z,20.48
2016-10-13T09:56:22.587Z,20.43
2016-10-13T09:57:22.736Z,20.41
2016-10-13T09:58:22.699Z,20.44
2016-10-13T09:59:23.310Z,20.44
2016-10-13T10:00:22.765Z,20.44
2016-10-13T10:01:22.865Z,20.43
2016-10-13T10:02:23.027Z,20.44
2016-10-13T10:03:22.950Z,20.56
2016-10-13T10:04:23.013Z,20.51
2016-10-13T10:05:23.058Z,20.55
2016-10-13T10:06:23.132Z,20.56
2016-10-13T10:07:23.244Z,20.55
2016-10-13T10:08:23.203Z,20.63
2016-10-13T10:09:23.278Z,20.51
2016-10-13T10:10:23.293Z,20.58
2016-10-13T10:11:23.380Z,20.56
2016-10-13T10:12:23.528Z,20.55
2016-10-13T10:13:23.459Z,20.52
2016-10-13T10:14:23.560Z,20.56
2016-10-13T10:15:23.605Z,20.58
2016-10-13T10:16:23.685Z,20.6
2016-10-13T10:17:23.705Z,20.58
2016-10-13T10:18:23.755Z,20.66
2016-10-13T10:19:23.777Z,20.62
2016-10-13T10:20:23.849Z,20.65
2016-10-13T10:21:23.916Z,20.69
2016-10-13T10:22:23.937Z,20.65
2016-10-13T10:23:24.063Z,20.6
2016-10-13T10:24:24.046Z,20.72
2016-10-13T10:25:24.121Z,20.6
2016-10-13T10:26:24.213Z,20.6
2016-10-13T10:27:24.240Z,20.62
2016-10-13T10:28:24.311Z,20.63
2016-10-13T10:29:24.335Z,20.72
2016-10-13T10:30:24.360Z,20.63
2016-10-13T10:31:24.428Z,20.67
2016-10-13T10:32:24.488Z,20.62
2016-10-13T10:33:24.616Z,20.63
2016-10-13T10:34:24.596Z,20.63
2016-10-13T10:35:24.631Z,20.59
2016-10-13T10:36:24.750Z,20.63
2016-10-13T10:37:25.321Z,20.69
2016-10-13T10:38:24.934Z,20.7
2016-10-13T10:39:25.408Z,20.75
2016-10-13T10:40:24.896Z,20.8
2016-10-13T10:41:24.977Z,20.78
2016-10-13T10:42:25.028Z,20.81
2016-10-13T10:43:25.181Z,20.81
2016-10-13T10:44:25.124Z,20.85
2016-10-13T10:45:25.168Z,20.82
2016-10-13T10:46:25.206Z,20.84
2016-10-13T10:47:25.295Z,20.82
2016-10-13T10:48:25.446Z,20.82
2016-10-13T10:49:25.417Z,20.8
2016-10-13T10:50:25.447Z,20.93
2016-10-13T10:51:25.506Z,20.93
2016-10-13T10:52:25.585Z,21.02
2016-10-13T10:53:25.609Z,20.92
2016-10-13T10:54:25.636Z,21
2016-10-13T10:55:25.723Z,20.96
2016-10-13T10:56:25.831Z,20.99
2016-10-13T10:57:26.351Z,21.09
2016-10-13T10:58:25.845Z,21.12
2016-10-13T10:59:25.945Z,21.05
2016-10-13T11:00:25.990Z,21
2016-10-13T11:01:26.021Z,21.03
2016-10-13T11:02:26.094Z,21.02
2016-10-13T11:03:26.175Z,21.12
2016-10-13T11:04:26.167Z,21.05
2016-10-13T11:05:26.269Z,21.07
2016-10-13T11:06:26.267Z,21.07
2016-10-13T11:07:26.314Z,21.07
2016-10-13T11:08:26.391Z,21.07
2016-10-13T11:09:26.545Z,21.03
2016-10-13T11:10:26.529Z,21.11
2016-10-13T11:11:26.559Z,21.12
2016-10-13T11:12:26.604Z,21.17
2016-10-13T11:13:26.665Z,21.07
2016-10-13T11:14:26.833Z,21.2
2016-10-13T11:15:27.322Z,21.25
2016-10-13T11:16:26.826Z,21.22
2016-10-13T11:17:26.863Z,21.25
2016-10-13T11:18:26.931Z,21.22
2016-10-13T11:19:27.110Z,21.25
2016-10-13T11:20:27.083Z,21.25
2016-10-13T11:21:27.661Z,21.24
2016-10-13T11:22:27.168Z,21.21
2016-10-13T11:23:27.204Z,21.27
2016-10-13T11:24:27.867Z,21.25
2016-10-13T11:25:27.294Z,21.32
2016-10-13T11:26:27.347Z,21.29
2016-10-13T11:27:27.405Z,21.33
2016-10-13T11:28:27.440Z,21.29
2016-10-13T11:29:28.049Z,21.32
2016-10-13T11:30:27.560Z,21.29
2016-10-13T11:31:27.648Z,21.29
2016-10-13T11:32:27.696Z,21.29
2016-10-13T11:33:28.250Z,21.27
2016-10-13T11:34:27.789Z,21.21
2016-10-13T11:35:27.862Z,21.27
2016-10-13T11:36:27.944Z,21.29
2016-10-13T11:37:28.512Z,21.29
2016-10-13T11:38:28.021Z,21.3
2016-10-13T11:39:28.038Z,21.32
2016-10-13T11:40:28.220Z,21.29
2016-10-13T11:41:28.135Z,21.3
2016-10-13T11:42:28.209Z,21.21
2016-10-13T11:43:28.820Z,21.27
2016-10-13T11:44:28.324Z,21.24
2016-10-13T11:45:32.299Z,21.32
2016-10-13T11:46:28.973Z,21.29
2016-10-13T11:47:28.474Z,21.35
2016-10-13T11:48:28.517Z,21.35
2016-10-13T11:49:28.609Z,21.32
2016-10-13T11:50:28.715Z,21.3
2016-10-13T11:51:28.679Z,21.37
2016-10-13T11:52:28.764Z,21.36
2016-10-13T11:53:28.780Z,21.37
2016-10-13T11:54:28.875Z,21.33
2016-10-13T11:55:28.998Z,21.52
2016-10-13T11:56:28.955Z,21.42
2016-10-13T11:57:29.200Z,21.54
2016-10-13T11:58:29.058Z,21.52
2016-10-13T11:59:29.134Z,21.54
2016-10-13T12:00:29.151Z,21.58
2016-10-13T12:01:29.250Z,21.54
2016-10-13T12:02:30.032Z,21.67
2016-10-13T12:03:29.367Z,21.6
2016-10-13T12:04:29.425Z,21.66
2016-10-13T12:05:29.450Z,21.7
2016-10-13T12:06:29.514Z,21.76
2016-10-13T12:07:29.523Z,21.76
2016-10-13T12:08:29.589Z,21.91
2016-10-13T12:09:30.200Z,21.89
2016-10-13T12:10:29.732Z,21.93
2016-10-13T12:11:29.789Z,21.91
2016-10-13T12:12:29.813Z,21.99
2016-10-13T12:13:29.856Z,22.06
2016-10-13T12:14:29.915Z,22.07
2016-10-13T12:15:30.510Z,22.14
2016-10-13T12:16:30.556Z,22.15
2016-10-13T12:17:30.663Z,22.17
2016-10-13T12:18:30.119Z,22.18
2016-10-13T12:19:30.774Z,22.28
2016-10-13T12:20:30.249Z,22.29
2016-10-13T12:21:30.413Z,22.32
2016-10-13T12:22:30.345Z,22.28
2016-10-13T12:23:30.410Z,22.39
2016-10-13T12:24:30.465Z,22.41
2016-10-13T12:25:30.550Z,22.43
2016-10-13T12:26:31.192Z,22.5
2016-10-13T12:27:30.637Z,22.54
2016-10-13T12:28:30.695Z,22.59
2016-10-13T12:29:30.743Z,22.54
2016-10-13T12:30:30.831Z,22.59
2016-10-13T12:31:30.937Z,22.73
2016-10-13T12:32:30.917Z,22.69
2016-10-13T12:33:31.004Z,22.73
2016-10-13T12:34:31.016Z,22.84
2016-10-13T12:35:31.057Z,22.87
2016-10-13T12:36:31.225Z,22.85
2016-10-13T12:37:31.165Z,22.94
2016-10-13T12:38:31.218Z,22.99
2016-10-13T12:39:31.834Z,23.05
2016-10-13T12:40:31.347Z,23.09
2016-10-13T12:41:31.473Z,23.09
2016-10-13T12:42:31.932Z,23.05
2016-10-13T12:43:31.507Z,23.13
2016-10-13T12:44:31.557Z,23.12
2016-10-13T12:45:31.622Z,23.28
2016-10-13T12:46:31.786Z,23.31
2016-10-13T12:47:31.706Z,23.36
2016-10-13T12:48:31.790Z,23.46
2016-10-13T12:49:31.812Z,23.58
2016-10-13T12:50:31.875Z,23.63
2016-10-13T12:51:31.957Z,23.71
2016-10-13T12:52:32.544Z,23.77
2016-10-13T12:53:32.042Z,23.8
2016-10-13T12:54:32.130Z,23.86
2016-10-13T12:55:32.170Z,23.86
2016-10-13T12:56:32.180Z,23.92